Terminal Aerodrome Forecast
Issued by NWS Cleveland, OH

Home | Current Version | Previous Version | Text Only | Print | Product List | Glossary On
Versions: 1 2 3 4 5 6 7 8 9 10 11 12 13 14 15 16 17 18 19 20 21
148
FTUS41 KCLE 191354 AAB
TAFCAK
TAF AMD
KCAK 191354Z 1914/2012 29014G20KT P6SM OVC025
      TEMPO 1914/1918 OVC035
     FM191800 29015G25KT P6SM VCSH OVC035
      TEMPO 1918/1921 OVC035
     FM192100 29010G20KT P6SM OVC035
     FM192200 29012KT P6SM OVC035
     FM201000 24009KT P6SM SCT250=

USA.gov is the U.S. government's official web portal to all federal, state and local government web resources and services.